Florian Jäger

Olheiro - VfL Wolfsburg
4 Abr 2027
Domingo
Processo

Personalidade

Adaptabilidade (11) Ambição (5) Controvérsia (3) Lealdade (11) Pressão (10) Profissionalismo (12) Espírito Esportivo (2) Temperamento (4)

Perfil

Estilo de Treinamento Democrático
Licença Nacional B
Determinação 10
Gestão de Pessoas 11
Motivação 8
Disciplina 7
Satisfação no Trabalho
50%
Fadiga
0%
Função Olheiro
Salário 24.0K p/s
Contrato 14.03.2028

Desempenho

Comportamento Normal
Eficácia do Treinamento
17%
Desenvolvimento do Jogador
75%
Prevenção de Lesões
35%
Implementação Tática
30%

Eventos Recentes

Participou de uma reunião de recrutamento agora
Participou de uma reunião de recrutamento agora
Avaliou um jogador agora
Avaliou um jogador agora
Avaliou um jogador 7d atrás
Avaliou um jogador 7d atrás
Avaliou um jogador 7d atrás
Avaliou um jogador 7d atrás

Monitorando agora

184
Jogador Clube Status Habilidade Confiança Observado Última observação Último voto
Luke Baartman Chippa United Ativo 101 / 95 40% 3 03.04.2027 -
Serge Daura Gazelle Garoua Ativo 93 / 100 40% 2 03.04.2027 -
Ayoub Oufkir AZ Ativo 135 / 137 40% 3 03.04.2027 -
Ben Ahmed Kohili Paradou Ativo 112 / 100 40% 3 02.04.2027 -
Tiago Pucciarelli FK Senica Ativo 99 / 113 40% 1 02.04.2027 -
Samy Merheg Alverca Ativo 113 / 110 40% 1 02.04.2027 -
Efraín Álvarez Guadalajara Ativo 121 / 132 40% 3 30.03.2027 -
Ognjen Bondžulić Mladost Lucani Ativo 95 / 112 40% 3 30.03.2027 -
Isi Palazón Rayo Vallecano Ativo 142 / 146 40% 2 30.03.2027 -
Luís Esteves Atlas Ativo 133 / 131 40% 2 30.03.2027 -
Jonás Luna Osasuna Ativo 109 / 116 40% 1 30.03.2027 -
Marcel Ruiz Toluca Ativo 154 / 139 40% 6 27.03.2027 -
Kauã Elias Shakhtar Ativo 130 / 131 40% 2 27.03.2027 -
Roger Brugué Levante Ativo 125 / 130 40% 2 27.03.2027 -
Adnan Courtois KV Oostende Ativo 117 / 132 40% 2 27.03.2027 -
Chiquinho Alverca Ativo 136 / 128 40% 1 27.03.2027 -
Markus Jensen Nacional Ativo 109 / 123 40% 1 27.03.2027 -
Orbelín Pineda Monterrey Ativo 139 / 127 40% 3 25.03.2027 -
Christian Kofane Bayer Leverkusen Ativo 138 / 148 40% 2 25.03.2027 -
Malcom Al Jazira Ativo 157 / 146 40% 1 25.03.2027 -
Majid Dejagah Gostaresh Foulad Ativo 126 / 146 40% 1 25.03.2027 -
Arkaitz Mariezkurrena Real Sociedad Ativo 121 / 128 40% 6 23.03.2027 -
Mert Kömür FC Augsburg Ativo 132 / 142 40% 1 23.03.2027 -
Sayed Abu Farchi Maccabi Tel Aviv Ativo 119 / 132 40% 1 23.03.2027 -
Marcelo Allende Mamelodi Sundowns Ativo 124 / 142 40% 2 22.03.2027 -
Zizo Al Ahly Ativo 137 / 138 40% 1 22.03.2027 -
Carlos Rodríguez Cruz Azul Ativo 130 / 132 40% 5 20.03.2027 -
Fashion Sakala Al-Fayha Ativo 141 / 130 40% 1 20.03.2027 -
Agustín Palavecino Cruz Azul Ativo 144 / 134 40% 3 19.03.2027 -
Maher Carrizo Ajax Ativo 121 / 119 40% 2 19.03.2027 -
Óliver Monterrey Ativo 136 / 131 40% 2 19.03.2027 -
Yannik Wagner Heidenheim Ativo 105 / 100 40% 1 19.03.2027 -
Matvii Ponomarenko Dynamo Kyiv Ativo 116 / 115 40% 4 16.03.2027 -
Leo Castledine Middlesbrough Ativo 125 / 135 40% 2 16.03.2027 -
Dominik Baumgartner Mattersburg Ativo 95 / 107 40% 2 15.03.2027 -
David Kalokoh Ajax Ativo 109 / 128 40% 1 15.03.2027 -
José Arnáiz Granada Ativo 132 / 117 40% 1 15.03.2027 -
Nemanja Radonjić Crvena Zvezda Ativo 139 / 120 40% 1 15.03.2027 -
Axel Openda KV Oostende Ativo 141 / 142 40% 2 13.03.2027 -
Oumar Camara Vitoria Guimaraes Ativo 120 / 121 40% 2 13.03.2027 -
Dom Ballard Leyton Orient Ativo 120 / 133 40% 1 13.03.2027 -
Iwan Morgan Grimsby Town Ativo 114 / 122 40% 1 09.03.2027 -
Fernando Valenzuela Queretaro Ativo 124 / 143 40% 1 08.03.2027 -
Percy Erasmus SuperSport United Ativo 138 / 134 40% 1 06.03.2027 -
Achraf Bencharki Al Ahly Ativo 132 / 123 40% 1 06.03.2027 -
Jesús Ricardo Angulo Toluca Ativo 143 / 148 40% 1 06.03.2027 -
Uchenna Ogundu FC Augsburg Ativo 124 / 134 40% 1 06.03.2027 -
Roberto Iliev Slavia Sofia Ativo 100 / 103 40% 1 06.03.2027 -
Jones El-Abdellaoui Celta Ativo 132 / 136 40% 4 03.03.2027 -
José Paradela Cruz Azul Ativo 134 / 144 40% 6 02.03.2027 -
Sebastián Córdova Pumas UNAM Ativo 147 / 140 40% 1 02.03.2027 -
Livan Burcu Union Berlin Perdido 129 / 115 65% 1 25.01.2027 Aprovar
Matteo di Giusto Luzern Ativo 122 / 113 40% 2 05.01.2027 -
Milson Al Jazira Ativo 118 / 108 40% 2 05.01.2027 -
Felipe Augusto Zenit Ativo 136 / 129 40% 1 05.01.2027 -
Luciano Gondou CSKA Moscow Ativo 122 / 123 40% 2 03.01.2027 -
Michy Fellaini KV Oostende Ativo 133 / 138 40% 3 03.01.2027 -
Vinicinho Bragantino Ativo 132 / 138 40% 1 03.01.2027 -
Esequiel Barco Spartak Moscow Ativo 139 / 132 40% 4 31.12.2026 -
Kingsley Coman Al-Nassr Ativo 156 / 171 40% 1 31.12.2026 -
Alexis Vega Toluca Ativo 135 / 162 40% 4 30.12.2026 -
Grischa Prömel Heidenheim Ativo 143 / 145 40% 1 30.12.2026 -
Lukáš Provod Slavia Prague Ativo 139 / 131 40% 2 29.12.2026 -
Pedrinho Shakhtar Ativo 131 / 145 40% 1 29.12.2026 -
Nahuel Tenaglia Alavés Ativo 130 / 135 40% 1 29.12.2026 -
Bernardo Fontes Braga Ativo 128 / 136 40% 1 27.12.2026 -
Oleksandr Saputin Zorya Ativo 113 / 127 40% 1 27.12.2026 -
Josip Juranović Union Berlin Ativo 141 / 130 40% 2 26.12.2026 -
Jesus Sinisterra Sevilla Ativo 151 / 154 40% 4 25.12.2026 -
Matheus Pereira Cruzeiro Ativo 156 / 150 40% 3 25.12.2026 -
Theo Bongonda Al-Faisaly Ativo 123 / 142 40% 1 24.12.2026 -
Rocco Vata Watford Ativo 117 / 135 40% 4 22.12.2026 -
Furkan Dursun Thun Ativo 102 / 97 40% 8 22.12.2026 -
Ajay Matthews Millwall Ativo 95 / 115 40% 2 22.12.2026 -
Borna Knezović Casarano Ativo 101 / 113 40% 4 21.12.2026 -
Benjamin Henrichs RB Leipzig Ativo 144 / 136 40% 2 20.12.2026 -
Max Moerstedt TSG Hoffenheim Ativo 109 / 143 40% 2 19.12.2026 -
Eliezer Mayenda Stade Rennais Ativo 123 / 127 40% 2 16.12.2026 -
Luiz Júnior Villarreal Ativo 140 / 146 40% 3 15.12.2026 -
Yorbe Vertessen Red Bull Salzburg Ativo 124 / 137 40% 1 15.12.2026 -
Gonzalo Plata Dinamo Moscow Ativo 139 / 143 40% 1 15.12.2026 -
Alvyn Sanches Young Boys Ativo 127 / 134 40% 3 13.12.2026 -
Ilyes Housni AS Nancy Ativo 106 / 122 40% 2 13.12.2026 -
Ezequiel Bullaude Santos Laguna Ativo 124 / 110 40% 1 13.12.2026 -
Julian Weigl Al-Qadisiyah Ativo 144 / 160 40% 1 09.12.2026 -
André-Franck Zambo Anguissa Napoli Ativo 167 / 154 40% 1 09.12.2026 -
Bernardo TSG Hoffenheim Ativo 142 / 146 40% 1 07.12.2026 -
Héctor Bellerín Betis Ativo 141 / 148 40% 2 06.12.2026 -
Marvin Keller Young Boys Ativo 136 / 149 40% 6 04.12.2026 -
Guilherme Fernandes Córdoba Ativo 136 / 130 40% 3 04.12.2026 -
Félix Lemaréchal Club Brugge Ativo 137 / 142 40% 2 04.12.2026 -
Mattia Zanotti Lugano Ativo 134 / 124 40% 1 04.12.2026 -
Bilal Bayazıt Kayserispor Ativo 137 / 125 40% 1 04.12.2026 -
Justin Hammel Grasshopper Ativo 118 / 127 40% 3 03.12.2026 -
Robin Risser RC Lens Ativo 142 / 147 40% 1 03.12.2026 -
Lucas Lund Viborg Ativo 109 / 100 40% 1 03.12.2026 -
Adriano Bertaccini Anderlecht Ativo 129 / 132 40% 1 02.12.2026 -
Pablo Solari Spartak Moscow Ativo 138 / 127 40% 1 02.12.2026 -
Haissem Hassan Bloemfontein Celtic Ativo 125 / 129 40% 3 01.12.2026 -
Gorka Guruzeta Athletic Bilbao Ativo 148 / 148 40% 1 01.12.2026 -
Metinho Basel Ativo 138 / 120 40% 1 01.12.2026 -
Adrià Altimira Deportivo La Coruña Ativo 132 / 120 40% 1 01.12.2026 -
David Fernández O'Higgins Ativo 103 / 106 40% 3 26.11.2026 -
Dženan Pejčinović VfB Stuttgart Ativo 115 / 141 40% 1 26.11.2026 -
Tristan Degreef Anderlecht Ativo 126 / 135 40% 2 24.11.2026 -
Urko Izeta Cádiz Ativo 130 / 139 40% 1 24.11.2026 -
Isaac Schmidt Young Boys Ativo 127 / 117 40% 1 24.11.2026 -
Donnell McNeilly Nottingham Forest Ativo 115 / 114 40% 2 21.11.2026 -
Conrad Harder RB Leipzig Ativo 134 / 152 40% 2 20.11.2026 -
Matthieu Epolo Standard Liege Ativo 122 / 132 40% 2 19.11.2026 -
Lazar Carević Famalicao Ativo 125 / 134 40% 1 19.11.2026 -
Anton Kade FC Augsburg Ativo 122 / 124 40% 1 17.11.2026 -
Robert Skov Union Berlin Ativo 130 / 146 40% 1 15.11.2026 -
Gorka Carrera Real Sociedad Ativo 119 / 110 40% 3 14.11.2026 -
Sandro Las Palmas Ativo 133 / 146 40% 2 12.11.2026 -
Kenny Tete Fulham Ativo 144 / 155 40% 1 11.11.2026 -
Alexander Lyng SonderjyskE Ativo 112 / 127 40% 5 08.11.2026 -
Iván Martín Racing Club Ativo 153 / 139 40% 1 07.11.2026 -
Luciano Jachfe Nueva Chicago Ativo 111 / 130 40% 3 06.11.2026 -
Ryan Gauld Vancouver Whitecaps Ativo 137 / 137 40% 1 06.11.2026 -
Niklas Steffen Thun Ativo 116 / 119 40% 1 06.11.2026 -
Mio Backhaus SC Freiburg Ativo 127 / 142 40% 4 05.11.2026 -
Carl Rushworth Coventry City Ativo 141 / 137 40% 2 05.11.2026 -
Elia Caprile Cagliari Ativo 142 / 143 40% 1 05.11.2026 -
Brais Méndez Columbus Crew Ativo 160 / 139 40% 1 03.11.2026 -
Jaminton Campaz Rosario Central Ativo 140 / 127 40% 1 02.11.2026 -
Sorriso Famalicao Ativo 132 / 119 40% 1 02.11.2026 -
Ritsu Doan Gamba Osaka Ativo 141 / 140 40% 1 02.11.2026 -
Michael Cooper Sheffield United Ativo 120 / 121 40% 2 29.10.2026 -
Gonzalo Crettaz NEC Ativo 134 / 140 40% 1 29.10.2026 -
Karl Hein Werder Bremen Ativo 139 / 149 40% 3 27.10.2026 Observar
Fabiano Rust Feyenoord Ativo 102 / 123 40% 1 27.10.2026 -
Christian Früchtl Red Bull Salzburg Ativo 113 / 126 40% 4 24.10.2026 -
Archie Goodwin Charlotte Football Club Ativo 94 / 116 40% 1 24.10.2026 -
Kostantis Tzolakis Hull City Ativo 139 / 144 40% 1 22.10.2026 -
César Ibáñez Huracán Ativo 133 / 138 40% 1 22.10.2026 -
Alan Lescano Argentinos Juniors Ativo 116 / 139 40% 1 22.10.2026 -
Matko Miljevic Racing Club Ativo 125 / 121 40% 1 22.10.2026 -
Iñaki Peña Panathinaikos Ativo 137 / 143 40% 1 19.10.2026 -
Jamie Cumming Oxford United Ativo 118 / 110 40% 1 19.10.2026 -
Nicolás Fernández Mercau New York City Ativo 137 / 128 40% 1 17.10.2026 -
Exequiel Zeballos Boca Juniors Ativo 140 / 132 40% 1 16.10.2026 -
Fidel Ambríz Monterrey Ativo 128 / 122 40% 1 16.10.2026 -
Abubakr Barry Red Bull Salzburg Ativo 127 / 126 40% 1 14.10.2026 -
Facundo Mura Inter Miami CF Ativo 119 / 109 40% 1 14.10.2026 -
Nikolay Zlatev Cherno More Ativo 105 / 99 40% 1 13.10.2026 -
Diego Conde Villarreal Ativo 138 / 149 40% 2 11.10.2026 -
Anthony Racioppi Sion Ativo 122 / 112 40% 1 09.10.2026 -
Mauro Silveira Junior Ativo 105 / 118 40% 3 07.10.2026 -
Anthony Patterson Wrexham Ativo 132 / 118 40% 1 07.10.2026 -
Arijanet Murić Sassuolo Ativo 140 / 146 40% 1 07.10.2026 -
Pascal Loretz Luzern Ativo 128 / 124 40% 2 05.10.2026 -
Grégoire Coudert Burnley Ativo 119 / 126 40% 2 04.10.2026 -
Radek Vítek Middlesbrough Ativo 125 / 147 40% 1 04.10.2026 -
Nicolás Sumavil Platense Ativo 111 / 111 40% 1 04.10.2026 -
Axel Alderweireld KV Oostende Ativo 137 / 129 40% 3 29.09.2026 -
Alex Luna Instituto Ativo 119 / 116 40% 1 29.09.2026 -
James Trafford Leeds United Ativo 137 / 139 40% 2 27.09.2026 -
Patrick Schulte Columbus Crew Ativo 108 / 112 40% 1 27.09.2026 -
Marquinhos Spartak Moscow Ativo 123 / 124 40% 1 27.09.2026 -
Alan Velasco Boca Juniors Ativo 127 / 149 40% 1 27.09.2026 -
Tomás Chancalay Minnesota United FC Ativo 136 / 107 40% 1 27.09.2026 -
Diego Lainez Tigres Ativo 116 / 142 40% 2 26.09.2026 -
Riqui Puig LA Galaxy Ativo 145 / 120 40% 1 26.09.2026 -
Brian Rodríguez Club America Ativo 115 / 120 40% 1 26.09.2026 -
Ilyas Ansah Union Berlin Ativo 130 / 126 40% 1 23.09.2026 -
Philip Otele Basel Ativo 127 / 137 40% 1 21.09.2026 -
Maurits Kjærgaard Red Bull Salzburg Ativo 125 / 128 40% 1 21.09.2026 -
Gabriel Brazão Santos Ativo 145 / 121 40% 1 19.09.2026 -
Thalys Almería Ativo 109 / 134 40% 2 17.09.2026 -
Vitor Roque Palmeiras Ativo 128 / 133 40% 3 15.09.2026 -
Will Lankshear Middlesbrough Ativo 128 / 130 40% 2 15.09.2026 -
Felipe Zenobio Tigre Ativo 136 / 128 40% 2 15.09.2026 -
Hugo Souza Corinthians Ativo 138 / 153 40% 1 15.09.2026 -
Enzo Vázquez Central Norte Ativo 100 / 127 40% 1 15.09.2026 -
Erik Lira Cruz Azul Ativo 136 / 138 40% 1 14.09.2026 -
Leandro Lozano Boca Juniors Ativo 139 / 105 40% 1 14.09.2026 -
John Pulskamp Sporting Kansas City Ativo 115 / 133 40% 1 08.09.2026 -
Ezekiel Kwame Alladoh Philadelphia Union Ativo 115 / 139 40% 1 04.09.2026 -
Julián Vignolo Toulouse FC Ativo 102 / 122 40% 1 30.08.2026 -
Rayan Fofana RC Lens Ativo 124 / 131 40% 1 26.08.2026 -
Jacob Peter Hödl Austria Wien Ativo 117 / 130 40% 1 17.08.2026 -
Taiwo Awoniyi Coventry City Ativo 136 / 128 40% 1 01.08.2026 -
Igor Jesus Nottingham Forest Ativo 140 / 126 40% 1 01.08.2026 -